Terminal Aerodrome Forecast
Issued by NWS

Home | Current Version | Previous Version | Text Only | Print | Product List | Glossary On
Versions: 1 2 3 4 5 6 7 8 9
345
FTUS46 KSTO 251729
TAFSMF
TAF
KSMF 251729Z 2518/2618 30008KT P6SM FEW100 BKN150
     FM260200 18007KT P6SM BKN100=

USA.gov is the U.S. government's official web portal to all federal, state and local government web resources and services.